sensor_id;sensor_type;location;lat;lon;timestamp;pressure;altitude;pressure_sealevel;temperature;humidity
71565;BME280;59397;50.952;14.502;2022-10-28T00:00:49;979.97;;;10.20;100.00
71565;BME280;59397;50.952;14.502;2022-10-28T00:20:17;980.18;;;10.13;100.00
71565;BME280;59397;50.952;14.502;2022-10-28T00:39:45;980.02;;;10.13;100.00
71565;BME280;59397;50.952;14.502;2022-10-28T00:59:14;979.71;;;10.04;100.00
71565;BME280;59397;50.952;14.502;2022-10-28T01:18:35;979.74;;;9.33;100.00
71565;BME280;59397;50.952;14.502;2022-10-28T01:37:58;979.51;;;9.88;100.00
71565;BME280;59397;50.952;14.502;2022-10-28T01:57:24;979.49;;;10.07;100.00
71565;BME280;59397;50.952;14.502;2022-10-28T02:16:47;979.52;;;10.35;100.00
71565;BME280;59397;50.952;14.502;2022-10-28T02:36:13;979.53;;;10.28;100.00
71565;BME280;59397;50.952;14.502;2022-10-28T02:55:41;979.36;;;10.26;100.00
71565;BME280;59397;50.952;14.502;2022-10-28T03:15:08;979.50;;;10.34;100.00
71565;BME280;59397;50.952;14.502;2022-10-28T03:34:36;979.54;;;10.42;100.00
71565;BME280;59397;50.952;14.502;2022-10-28T03:53:56;979.48;;;10.53;100.00
71565;BME280;59397;50.952;14.502;2022-10-28T04:13:19;979.21;;;10.61;100.00
71565;BME280;59397;50.952;14.502;2022-10-28T04:32:39;979.34;;;10.56;100.00
71565;BME280;59397;50.952;14.502;2022-10-28T04:51:59;979.30;;;10.25;100.00
71565;BME280;59397;50.952;14.502;2022-10-28T05:11:25;979.14;;;9.76;100.00
71565;BME280;59397;50.952;14.502;2022-10-28T05:30:47;979.19;;;9.79;100.00
71565;BME280;59397;50.952;14.502;2022-10-28T05:50:16;979.00;;;9.80;100.00
71565;BME280;59397;50.952;14.502;2022-10-28T06:09:43;979.11;;;9.94;100.00
71565;BME280;59397;50.952;14.502;2022-10-28T06:29:08;979.22;;;10.27;100.00
71565;BME280;59397;50.952;14.502;2022-10-28T06:48:37;979.48;;;10.61;100.00
71565;BME280;59397;50.952;14.502;2022-10-28T07:08:05;979.49;;;10.79;100.00
71565;BME280;59397;50.952;14.502;2022-10-28T07:27:34;979.52;;;10.88;100.00
71565;BME280;59397;50.952;14.502;2022-10-28T07:47:02;979.71;;;11.29;100.00
71565;BME280;59397;50.952;14.502;2022-10-28T08:06:33;979.60;;;12.05;100.00
71565;BME280;59397;50.952;14.502;2022-10-28T08:26:03;979.61;;;12.75;100.00
71565;BME280;59397;50.952;14.502;2022-10-28T08:45:36;979.61;;;13.03;100.00
71565;BME280;59397;50.952;14.502;2022-10-28T09:04:57;979.56;;;13.77;100.00
71565;BME280;59397;50.952;14.502;2022-10-28T09:24:19;979.50;;;13.90;100.00
71565;BME280;59397;50.952;14.502;2022-10-28T09:47:23;979.39;;;14.27;99.09
71565;BME280;59397;50.952;14.502;2022-10-28T10:06:31;979.34;;;14.49;98.07
71565;BME280;59397;50.952;14.502;2022-10-28T10:25:57;979.30;;;14.45;97.80
71565;BME280;59397;50.952;14.502;2022-10-28T10:45:25;979.28;;;14.06;98.91
71565;BME280;59397;50.952;14.502;2022-10-28T11:04:58;978.93;;;15.39;93.75
71565;BME280;59397;50.952;14.502;2022-10-28T11:24:26;978.75;;;14.81;93.01
71565;BME280;59397;50.952;14.502;2022-10-28T11:43:46;978.58;;;15.54;90.32
71565;BME280;59397;50.952;14.502;2022-10-28T12:03:11;978.42;;;15.51;89.85
71565;BME280;59397;50.952;14.502;2022-10-28T12:22:38;978.29;;;15.20;90.17
71565;BME280;59397;50.952;14.502;2022-10-28T12:41:55;978.36;;;14.44;95.55
71565;BME280;59397;50.952;14.502;2022-10-28T13:01:21;978.31;;;14.24;95.31
71565;BME280;59397;50.952;14.502;2022-10-28T13:20:52;978.25;;;14.77;92.70
71565;BME280;59397;50.952;14.502;2022-10-28T13:40:20;978.19;;;14.56;94.27
71565;BME280;59397;50.952;14.502;2022-10-28T13:59:48;978.10;;;14.81;92.54
71565;BME280;59397;50.952;14.502;2022-10-28T14:57:45;978.07;;;14.23;95.93
71565;BME280;59397;50.952;14.502;2022-10-28T15:17:14;977.87;;;14.02;97.28
71565;BME280;59397;50.952;14.502;2022-10-28T15:36:28;977.89;;;13.58;99.79
71565;BME280;59397;50.952;14.502;2022-10-28T16:15:19;977.89;;;12.70;100.00
71565;BME280;59397;50.952;14.502;2022-10-28T16:34:46;977.91;;;12.42;100.00
71565;BME280;59397;50.952;14.502;2022-10-28T16:54:16;977.83;;;13.08;100.00
71565;BME280;59397;50.952;14.502;2022-10-28T17:13:45;977.77;;;13.51;100.00
71565;BME280;59397;50.952;14.502;2022-10-28T17:33:03;977.87;;;13.07;100.00
71565;BME280;59397;50.952;14.502;2022-10-28T17:52:31;977.73;;;13.02;100.00
71565;BME280;59397;50.952;14.502;2022-10-28T18:31:08;977.65;;;13.27;100.00
71565;BME280;59397;50.952;14.502;2022-10-28T18:51:06;977.62;;;13.41;100.00
71565;BME280;59397;50.952;14.502;2022-10-28T19:09:46;977.48;;;13.25;100.00
71565;BME280;59397;50.952;14.502;2022-10-28T19:29:10;977.47;;;13.37;100.00
71565;BME280;59397;50.952;14.502;2022-10-28T19:48:41;977.41;;;13.30;100.00
71565;BME280;59397;50.952;14.502;2022-10-28T20:08:03;977.55;;;13.40;100.00
71565;BME280;59397;50.952;14.502;2022-10-28T20:27:31;977.49;;;13.22;100.00
71565;BME280;59397;50.952;14.502;2022-10-28T20:46:52;977.55;;;13.18;100.00
71565;BME280;59397;50.952;14.502;2022-10-28T21:06:15;977.68;;;12.97;100.00
71565;BME280;59397;50.952;14.502;2022-10-28T21:25:41;977.69;;;12.93;100.00
71565;BME280;59397;50.952;14.502;2022-10-28T21:45:09;977.55;;;13.11;100.00
71565;BME280;59397;50.952;14.502;2022-10-28T22:04:33;977.56;;;13.02;100.00
71565;BME280;59397;50.952;14.502;2022-10-28T22:23:58;977.70;;;12.62;100.00
71565;BME280;59397;50.952;14.502;2022-10-28T22:43:27;977.52;;;12.76;100.00
71565;BME280;59397;50.952;14.502;2022-10-28T23:02:54;977.58;;;12.63;100.00
71565;BME280;59397;50.952;14.502;2022-10-28T23:22:20;977.67;;;12.32;100.00
71565;BME280;59397;50.952;14.502;2022-10-28T23:41:47;977.80;;;11.93;100.00
